sensor_id;sensor_type;location;lat;lon;timestamp;P1;durP1;ratioP1;P2;durP2;ratioP2
29214;SDS011;16252;49.816;7.964;2023-07-29T00:00:19;1.13;;;0.70;;
29214;SDS011;16252;49.816;7.964;2023-07-29T00:02:44;0.70;;;0.70;;
29214;SDS011;16252;49.816;7.964;2023-07-29T00:05:10;0.73;;;0.73;;
29214;SDS011;16252;49.816;7.964;2023-07-29T00:07:36;0.95;;;0.82;;
29214;SDS011;16252;49.816;7.964;2023-07-29T00:10:01;0.60;;;0.55;;
29214;SDS011;16252;49.816;7.964;2023-07-29T00:12:28;0.95;;;0.70;;
29214;SDS011;16252;49.816;7.964;2023-07-29T00:14:53;0.63;;;0.63;;
29214;SDS011;16252;49.816;7.964;2023-07-29T00:17:19;0.93;;;0.60;;
29214;SDS011;16252;49.816;7.964;2023-07-29T00:19:45;0.73;;;0.60;;
29214;SDS011;16252;49.816;7.964;2023-07-29T00:22:10;0.70;;;0.70;;
29214;SDS011;16252;49.816;7.964;2023-07-29T00:24:36;0.93;;;0.82;;
29214;SDS011;16252;49.816;7.964;2023-07-29T00:27:01;0.88;;;0.80;;
29214;SDS011;16252;49.816;7.964;2023-07-29T00:29:26;1.10;;;0.85;;
29214;SDS011;16252;49.816;7.964;2023-07-29T00:31:52;0.98;;;0.68;;
29214;SDS011;16252;49.816;7.964;2023-07-29T00:34:17;0.82;;;0.70;;
29214;SDS011;16252;49.816;7.964;2023-07-29T00:36:44;2.72;;;0.80;;
29214;SDS011;16252;49.816;7.964;2023-07-29T00:39:12;0.77;;;0.77;;
29214;SDS011;16252;49.816;7.964;2023-07-29T00:41:37;1.60;;;1.02;;
29214;SDS011;16252;49.816;7.964;2023-07-29T00:44:02;1.50;;;0.90;;
29214;SDS011;16252;49.816;7.964;2023-07-29T00:46:28;0.63;;;0.63;;
29214;SDS011;16252;49.816;7.964;2023-07-29T00:48:54;1.25;;;0.85;;
29214;SDS011;16252;49.816;7.964;2023-07-29T00:51:20;1.23;;;1.10;;
29214;SDS011;16252;49.816;7.964;2023-07-29T00:53:45;1.05;;;0.82;;
29214;SDS011;16252;49.816;7.964;2023-07-29T00:56:11;1.00;;;0.73;;
29214;SDS011;16252;49.816;7.964;2023-07-29T00:58:37;0.90;;;0.85;;
29214;SDS011;16252;49.816;7.964;2023-07-29T01:01:02;1.38;;;1.00;;
29214;SDS011;16252;49.816;7.964;2023-07-29T01:03:27;0.68;;;0.68;;
29214;SDS011;16252;49.816;7.964;2023-07-29T01:06:12;1.17;;;1.00;;
29214;SDS011;16252;49.816;7.964;2023-07-29T01:08:46;1.17;;;0.80;;
29214;SDS011;16252;49.816;7.964;2023-07-29T01:14:08;0.80;;;0.80;;
29214;SDS011;16252;49.816;7.964;2023-07-29T01:16:43;0.90;;;0.80;;
29214;SDS011;16252;49.816;7.964;2023-07-29T01:19:32;1.05;;;0.70;;
29214;SDS011;16252;49.816;7.964;2023-07-29T01:22:36;1.50;;;0.82;;
29214;SDS011;16252;49.816;7.964;2023-07-29T01:25:02;1.83;;;1.02;;
29214;SDS011;16252;49.816;7.964;2023-07-29T01:27:28;0.82;;;0.80;;
29214;SDS011;16252;49.816;7.964;2023-07-29T01:29:54;0.75;;;0.70;;
29214;SDS011;16252;49.816;7.964;2023-07-29T01:32:29;1.75;;;0.85;;
29214;SDS011;16252;49.816;7.964;2023-07-29T01:35:00;2.22;;;0.90;;
29214;SDS011;16252;49.816;7.964;2023-07-29T01:37:35;0.80;;;0.80;;
29214;SDS011;16252;49.816;7.964;2023-07-29T01:40:03;1.10;;;0.70;;
29214;SDS011;16252;49.816;7.964;2023-07-29T01:42:30;0.73;;;0.73;;
29214;SDS011;16252;49.816;7.964;2023-07-29T01:44:56;1.77;;;0.90;;
29214;SDS011;16252;49.816;7.964;2023-07-29T01:47:21;1.00;;;0.90;;
29214;SDS011;16252;49.816;7.964;2023-07-29T01:49:47;6.20;;;1.75;;
29214;SDS011;16252;49.816;7.964;2023-07-29T01:52:13;1.60;;;1.30;;
29214;SDS011;16252;49.816;7.964;2023-07-29T01:54:38;4.57;;;1.90;;
29214;SDS011;16252;49.816;7.964;2023-07-29T01:57:03;4.28;;;1.10;;
29214;SDS011;16252;49.816;7.964;2023-07-29T01:59:29;7.15;;;1.65;;
29214;SDS011;16252;49.816;7.964;2023-07-29T02:01:54;2.63;;;1.30;;
29214;SDS011;16252;49.816;7.964;2023-07-29T02:04:19;1.17;;;0.82;;
29214;SDS011;16252;49.816;7.964;2023-07-29T02:06:44;0.82;;;0.73;;
29214;SDS011;16252;49.816;7.964;2023-07-29T02:09:10;4.05;;;0.82;;
29214;SDS011;16252;49.816;7.964;2023-07-29T02:11:35;4.35;;;1.05;;
29214;SDS011;16252;49.816;7.964;2023-07-29T02:14:00;1.00;;;0.90;;
29214;SDS011;16252;49.816;7.964;2023-07-29T02:16:25;1.33;;;1.15;;
29214;SDS011;16252;49.816;7.964;2023-07-29T02:18:51;1.45;;;1.10;;
29214;SDS011;16252;49.816;7.964;2023-07-29T02:21:16;2.83;;;1.00;;
29214;SDS011;16252;49.816;7.964;2023-07-29T02:23:41;1.00;;;0.80;;
29214;SDS011;16252;49.816;7.964;2023-07-29T02:26:07;1.15;;;0.95;;
29214;SDS011;16252;49.816;7.964;2023-07-29T02:28:32;0.75;;;0.75;;
29214;SDS011;16252;49.816;7.964;2023-07-29T02:33:43;1.70;;;1.10;;
29214;SDS011;16252;49.816;7.964;2023-07-29T02:36:09;1.77;;;1.40;;
29214;SDS011;16252;49.816;7.964;2023-07-29T02:38:34;3.80;;;1.20;;
29214;SDS011;16252;49.816;7.964;2023-07-29T02:41:00;1.35;;;1.25;;
29214;SDS011;16252;49.816;7.964;2023-07-29T02:43:25;1.92;;;1.30;;
29214;SDS011;16252;49.816;7.964;2023-07-29T02:45:50;1.98;;;1.20;;
29214;SDS011;16252;49.816;7.964;2023-07-29T02:48:15;1.85;;;1.08;;
29214;SDS011;16252;49.816;7.964;2023-07-29T02:50:41;2.75;;;1.35;;
29214;SDS011;16252;49.816;7.964;2023-07-29T02:53:06;2.45;;;1.20;;
29214;SDS011;16252;49.816;7.964;2023-07-29T02:55:31;2.83;;;1.10;;
29214;SDS011;16252;49.816;7.964;2023-07-29T02:57:57;2.67;;;0.93;;
29214;SDS011;16252;49.816;7.964;2023-07-29T03:00:22;0.98;;;0.90;;
29214;SDS011;16252;49.816;7.964;2023-07-29T03:02:47;2.78;;;1.02;;
29214;SDS011;16252;49.816;7.964;2023-07-29T03:05:12;1.75;;;1.20;;
29214;SDS011;16252;49.816;7.964;2023-07-29T03:07:38;4.15;;;1.10;;
29214;SDS011;16252;49.816;7.964;2023-07-29T03:10:03;1.52;;;0.90;;
29214;SDS011;16252;49.816;7.964;2023-07-29T03:12:29;1.42;;;1.00;;
29214;SDS011;16252;49.816;7.964;2023-07-29T03:14:54;1.40;;;1.30;;
29214;SDS011;16252;49.816;7.964;2023-07-29T03:17:21;1.23;;;1.13;;
29214;SDS011;16252;49.816;7.964;2023-07-29T03:19:46;3.13;;;1.20;;
29214;SDS011;16252;49.816;7.964;2023-07-29T03:22:11;2.33;;;1.35;;
29214;SDS011;16252;49.816;7.964;2023-07-29T03:24:36;1.85;;;1.02;;
29214;SDS011;16252;49.816;7.964;2023-07-29T03:27:02;1.52;;;1.20;;
29214;SDS011;16252;49.816;7.964;2023-07-29T03:29:27;1.67;;;1.35;;
29214;SDS011;16252;49.816;7.964;2023-07-29T03:31:53;2.33;;;1.75;;
29214;SDS011;16252;49.816;7.964;2023-07-29T03:34:18;2.90;;;1.23;;
29214;SDS011;16252;49.816;7.964;2023-07-29T03:36:43;1.70;;;1.20;;
29214;SDS011;16252;49.816;7.964;2023-07-29T03:39:10;3.15;;;1.05;;
29214;SDS011;16252;49.816;7.964;2023-07-29T03:41:36;1.60;;;1.10;;
29214;SDS011;16252;49.816;7.964;2023-07-29T03:44:01;1.70;;;1.10;;
29214;SDS011;16252;49.816;7.964;2023-07-29T03:46:26;1.10;;;1.02;;
29214;SDS011;16252;49.816;7.964;2023-07-29T03:48:52;1.25;;;1.15;;
29214;SDS011;16252;49.816;7.964;2023-07-29T03:51:17;2.05;;;1.30;;
29214;SDS011;16252;49.816;7.964;2023-07-29T03:53:43;1.05;;;0.95;;
29214;SDS011;16252;49.816;7.964;2023-07-29T03:56:08;1.20;;;1.10;;
29214;SDS011;16252;49.816;7.964;2023-07-29T03:58:33;1.00;;;1.00;;
29214;SDS011;16252;49.816;7.964;2023-07-29T04:00:58;1.30;;;1.20;;
29214;SDS011;16252;49.816;7.964;2023-07-29T04:03:24;1.17;;;1.08;;
29214;SDS011;16252;49.816;7.964;2023-07-29T04:05:49;1.50;;;1.30;;
29214;SDS011;16252;49.816;7.964;2023-07-29T04:08:14;1.02;;;0.93;;
29214;SDS011;16252;49.816;7.964;2023-07-29T04:10:39;1.48;;;1.15;;
29214;SDS011;16252;49.816;7.964;2023-07-29T04:13:05;1.10;;;0.95;;
29214;SDS011;16252;49.816;7.964;2023-07-29T04:15:30;2.00;;;1.20;;
29214;SDS011;16252;49.816;7.964;2023-07-29T04:17:55;1.08;;;0.98;;
29214;SDS011;16252;49.816;7.964;2023-07-29T04:20:21;1.08;;;0.98;;
29214;SDS011;16252;49.816;7.964;2023-07-29T04:22:46;3.28;;;1.00;;
29214;SDS011;16252;49.816;7.964;2023-07-29T04:25:11;0.98;;;0.80;;
29214;SDS011;16252;49.816;7.964;2023-07-29T04:27:38;0.80;;;0.80;;
29214;SDS011;16252;49.816;7.964;2023-07-29T04:30:03;2.42;;;0.90;;
29214;SDS011;16252;49.816;7.964;2023-07-29T04:32:29;0.98;;;0.90;;
29214;SDS011;16252;49.816;7.964;2023-07-29T04:34:54;1.33;;;0.90;;
29214;SDS011;16252;49.816;7.964;2023-07-29T04:37:19;1.55;;;0.88;;
29214;SDS011;16252;49.816;7.964;2023-07-29T04:39:46;0.85;;;0.85;;
29214;SDS011;16252;49.816;7.964;2023-07-29T04:42:11;0.70;;;0.70;;
29214;SDS011;16252;49.816;7.964;2023-07-29T04:44:36;1.60;;;1.10;;
29214;SDS011;16252;49.816;7.964;2023-07-29T04:47:02;1.05;;;0.95;;
29214;SDS011;16252;49.816;7.964;2023-07-29T04:49:27;2.38;;;1.25;;
29214;SDS011;16252;49.816;7.964;2023-07-29T04:51:53;1.02;;;0.98;;
29214;SDS011;16252;49.816;7.964;2023-07-29T04:54:18;1.17;;;1.08;;
29214;SDS011;16252;49.816;7.964;2023-07-29T04:56:45;1.25;;;1.10;;
29214;SDS011;16252;49.816;7.964;2023-07-29T04:59:11;1.48;;;1.33;;
29214;SDS011;16252;49.816;7.964;2023-07-29T05:01:37;1.30;;;1.20;;
29214;SDS011;16252;49.816;7.964;2023-07-29T05:04:03;1.25;;;1.13;;
29214;SDS011;16252;49.816;7.964;2023-07-29T05:06:28;1.13;;;1.02;;
29214;SDS011;16252;49.816;7.964;2023-07-29T05:08:54;1.77;;;1.00;;
29214;SDS011;16252;49.816;7.964;2023-07-29T05:11:19;1.67;;;1.55;;
29214;SDS011;16252;49.816;7.964;2023-07-29T05:13:44;1.52;;;1.25;;
29214;SDS011;16252;49.816;7.964;2023-07-29T05:16:09;1.33;;;1.23;;
29214;SDS011;16252;49.816;7.964;2023-07-29T05:18:35;2.97;;;1.10;;
29214;SDS011;16252;49.816;7.964;2023-07-29T05:21:00;1.10;;;1.00;;
29214;SDS011;16252;49.816;7.964;2023-07-29T05:23:25;1.10;;;1.00;;
29214;SDS011;16252;49.816;7.964;2023-07-29T05:25:50;1.50;;;1.40;;
29214;SDS011;16252;49.816;7.964;2023-07-29T05:28:16;1.65;;;1.38;;
29214;SDS011;16252;49.816;7.964;2023-07-29T05:30:43;2.00;;;1.40;;
29214;SDS011;16252;49.816;7.964;2023-07-29T05:33:08;1.77;;;1.50;;
29214;SDS011;16252;49.816;7.964;2023-07-29T05:35:33;1.70;;;1.60;;
29214;SDS011;16252;49.816;7.964;2023-07-29T05:37:59;2.20;;;1.50;;
29214;SDS011;16252;49.816;7.964;2023-07-29T05:40:24;1.90;;;1.67;;
29214;SDS011;16252;49.816;7.964;2023-07-29T05:42:49;1.50;;;1.40;;
29214;SDS011;16252;49.816;7.964;2023-07-29T05:45:15;2.20;;;1.50;;
29214;SDS011;16252;49.816;7.964;2023-07-29T05:47:40;1.80;;;1.58;;
29214;SDS011;16252;49.816;7.964;2023-07-29T05:50:06;1.45;;;1.30;;
29214;SDS011;16252;49.816;7.964;2023-07-29T05:52:32;1.30;;;1.20;;
29214;SDS011;16252;49.816;7.964;2023-07-29T05:54:58;1.42;;;1.33;;
29214;SDS011;16252;49.816;7.964;2023-07-29T05:57:23;1.92;;;1.60;;
29214;SDS011;16252;49.816;7.964;2023-07-29T05:59:48;1.58;;;1.48;;
29214;SDS011;16252;49.816;7.964;2023-07-29T06:02:13;2.03;;;1.63;;
29214;SDS011;16252;49.816;7.964;2023-07-29T06:04:39;3.95;;;1.70;;
29214;SDS011;16252;49.816;7.964;2023-07-29T06:07:05;1.20;;;1.10;;
29214;SDS011;16252;49.816;7.964;2023-07-29T06:09:30;1.85;;;1.48;;
29214;SDS011;16252;49.816;7.964;2023-07-29T06:11:55;2.17;;;1.20;;
29214;SDS011;16252;49.816;7.964;2023-07-29T06:14:21;1.58;;;1.40;;
29214;SDS011;16252;49.816;7.964;2023-07-29T06:16:46;2.47;;;1.17;;
29214;SDS011;16252;49.816;7.964;2023-07-29T06:19:11;2.00;;;1.05;;
29214;SDS011;16252;49.816;7.964;2023-07-29T06:21:38;2.05;;;1.40;;
29214;SDS011;16252;49.816;7.964;2023-07-29T06:24:03;3.03;;;1.23;;
29214;SDS011;16252;49.816;7.964;2023-07-29T06:26:29;2.30;;;1.02;;
29214;SDS011;16252;49.816;7.964;2023-07-29T06:28:54;1.35;;;1.10;;
29214;SDS011;16252;49.816;7.964;2023-07-29T06:31:19;1.33;;;1.23;;
29214;SDS011;16252;49.816;7.964;2023-07-29T06:33:45;1.60;;;1.42;;
29214;SDS011;16252;49.816;7.964;2023-07-29T06:36:11;1.60;;;1.50;;
29214;SDS011;16252;49.816;7.964;2023-07-29T06:38:37;6.25;;;1.50;;
29214;SDS011;16252;49.816;7.964;2023-07-29T06:41:03;1.60;;;1.48;;
29214;SDS011;16252;49.816;7.964;2023-07-29T06:43:29;4.25;;;1.65;;
29214;SDS011;16252;49.816;7.964;2023-07-29T06:45:54;2.40;;;2.20;;
29214;SDS011;16252;49.816;7.964;2023-07-29T06:48:20;2.58;;;1.58;;
29214;SDS011;16252;49.816;7.964;2023-07-29T06:50:45;2.00;;;1.75;;
29214;SDS011;16252;49.816;7.964;2023-07-29T06:53:11;2.90;;;1.60;;
29214;SDS011;16252;49.816;7.964;2023-07-29T06:55:36;1.23;;;1.10;;
29214;SDS011;16252;49.816;7.964;2023-07-29T06:58:02;2.05;;;1.23;;
29214;SDS011;16252;49.816;7.964;2023-07-29T07:00:27;1.23;;;1.08;;
29214;SDS011;16252;49.816;7.964;2023-07-29T07:02:53;0.95;;;0.88;;
29214;SDS011;16252;49.816;7.964;2023-07-29T07:05:18;1.33;;;1.20;;
29214;SDS011;16252;49.816;7.964;2023-07-29T07:07:43;1.02;;;0.90;;
29214;SDS011;16252;49.816;7.964;2023-07-29T07:10:09;1.00;;;0.90;;
29214;SDS011;16252;49.816;7.964;2023-07-29T07:12:34;1.40;;;1.25;;
29214;SDS011;16252;49.816;7.964;2023-07-29T07:15:00;1.17;;;1.00;;
29214;SDS011;16252;49.816;7.964;2023-07-29T07:17:26;1.00;;;0.73;;
29214;SDS011;16252;49.816;7.964;2023-07-29T07:19:51;0.85;;;0.85;;
29214;SDS011;16252;49.816;7.964;2023-07-29T07:22:16;1.20;;;1.00;;
29214;SDS011;16252;49.816;7.964;2023-07-29T07:24:42;1.10;;;1.00;;
29214;SDS011;16252;49.816;7.964;2023-07-29T07:27:07;1.48;;;0.90;;
29214;SDS011;16252;49.816;7.964;2023-07-29T07:29:32;1.90;;;0.90;;
29214;SDS011;16252;49.816;7.964;2023-07-29T07:31:58;0.90;;;0.80;;
29214;SDS011;16252;49.816;7.964;2023-07-29T07:34:23;2.63;;;0.80;;
29214;SDS011;16252;49.816;7.964;2023-07-29T07:36:49;0.93;;;0.70;;
29214;SDS011;16252;49.816;7.964;2023-07-29T07:39:14;0.80;;;0.77;;
29214;SDS011;16252;49.816;7.964;2023-07-29T07:41:40;0.70;;;0.60;;
29214;SDS011;16252;49.816;7.964;2023-07-29T07:44:06;1.67;;;0.65;;
29214;SDS011;16252;49.816;7.964;2023-07-29T07:46:31;1.40;;;0.77;;
29214;SDS011;16252;49.816;7.964;2023-07-29T07:48:56;1.00;;;0.75;;
29214;SDS011;16252;49.816;7.964;2023-07-29T07:51:22;0.70;;;0.70;;
29214;SDS011;16252;49.816;7.964;2023-07-29T07:53:48;1.50;;;0.60;;
29214;SDS011;16252;49.816;7.964;2023-07-29T07:56:13;0.68;;;0.65;;
29214;SDS011;16252;49.816;7.964;2023-07-29T07:58:40;2.85;;;0.88;;
29214;SDS011;16252;49.816;7.964;2023-07-29T08:01:05;0.68;;;0.68;;
29214;SDS011;16252;49.816;7.964;2023-07-29T08:03:32;1.27;;;0.90;;
29214;SDS011;16252;49.816;7.964;2023-07-29T08:05:57;0.88;;;0.55;;
29214;SDS011;16252;49.816;7.964;2023-07-29T08:08:23;0.90;;;0.70;;
29214;SDS011;16252;49.816;7.964;2023-07-29T08:10:48;0.55;;;0.47;;
29214;SDS011;16252;49.816;7.964;2023-07-29T08:13:14;0.60;;;0.57;;
29214;SDS011;16252;49.816;7.964;2023-07-29T08:15:39;1.30;;;0.70;;
29214;SDS011;16252;49.816;7.964;2023-07-29T08:18:06;1.30;;;0.93;;
29214;SDS011;16252;49.816;7.964;2023-07-29T08:20:31;0.70;;;0.60;;
29214;SDS011;16252;49.816;7.964;2023-07-29T08:22:57;0.88;;;0.70;;
29214;SDS011;16252;49.816;7.964;2023-07-29T08:25:22;1.20;;;0.75;;
29214;SDS011;16252;49.816;7.964;2023-07-29T08:27:48;0.95;;;0.70;;
29214;SDS011;16252;49.816;7.964;2023-07-29T08:30:13;0.82;;;0.70;;
29214;SDS011;16252;49.816;7.964;2023-07-29T08:32:40;1.90;;;0.80;;
29214;SDS011;16252;49.816;7.964;2023-07-29T08:35:06;0.93;;;0.65;;
29214;SDS011;16252;49.816;7.964;2023-07-29T08:37:31;0.95;;;0.85;;
29214;SDS011;16252;49.816;7.964;2023-07-29T08:39:57;1.25;;;0.98;;
29214;SDS011;16252;49.816;7.964;2023-07-29T08:42:22;0.85;;;0.80;;
29214;SDS011;16252;49.816;7.964;2023-07-29T08:44:50;0.95;;;0.65;;
29214;SDS011;16252;49.816;7.964;2023-07-29T08:47:19;0.90;;;0.77;;
29214;SDS011;16252;49.816;7.964;2023-07-29T08:49:44;0.88;;;0.80;;
29214;SDS011;16252;49.816;7.964;2023-07-29T08:52:11;1.05;;;0.80;;
29214;SDS011;16252;49.816;7.964;2023-07-29T08:54:37;2.10;;;0.85;;
29214;SDS011;16252;49.816;7.964;2023-07-29T08:57:02;0.50;;;0.47;;
29214;SDS011;16252;49.816;7.964;2023-07-29T08:59:28;1.75;;;0.90;;
29214;SDS011;16252;49.816;7.964;2023-07-29T09:01:54;0.80;;;0.80;;
29214;SDS011;16252;49.816;7.964;2023-07-29T09:04:22;1.45;;;0.73;;
29214;SDS011;16252;49.816;7.964;2023-07-29T09:06:49;1.08;;;0.70;;
29214;SDS011;16252;49.816;7.964;2023-07-29T09:09:15;1.92;;;0.95;;
29214;SDS011;16252;49.816;7.964;2023-07-29T09:11:40;1.42;;;0.85;;
29214;SDS011;16252;49.816;7.964;2023-07-29T09:14:06;1.05;;;0.82;;
29214;SDS011;16252;49.816;7.964;2023-07-29T09:16:31;0.70;;;0.70;;
29214;SDS011;16252;49.816;7.964;2023-07-29T09:19:00;0.65;;;0.60;;
29214;SDS011;16252;49.816;7.964;2023-07-29T09:21:26;0.80;;;0.80;;
29214;SDS011;16252;49.816;7.964;2023-07-29T09:23:53;0.95;;;0.73;;
29214;SDS011;16252;49.816;7.964;2023-07-29T09:26:22;1.27;;;0.70;;
29214;SDS011;16252;49.816;7.964;2023-07-29T09:28:51;0.90;;;0.73;;
29214;SDS011;16252;49.816;7.964;2023-07-29T09:31:19;0.80;;;0.73;;
29214;SDS011;16252;49.816;7.964;2023-07-29T09:33:45;0.70;;;0.70;;
29214;SDS011;16252;49.816;7.964;2023-07-29T09:36:10;0.70;;;0.70;;
29214;SDS011;16252;49.816;7.964;2023-07-29T09:38:36;0.70;;;0.70;;
29214;SDS011;16252;49.816;7.964;2023-07-29T09:41:02;0.77;;;0.77;;
29214;SDS011;16252;49.816;7.964;2023-07-29T09:43:34;0.98;;;0.88;;
29214;SDS011;16252;49.816;7.964;2023-07-29T09:46:00;0.60;;;0.60;;
29214;SDS011;16252;49.816;7.964;2023-07-29T09:48:26;0.55;;;0.50;;
29214;SDS011;16252;49.816;7.964;2023-07-29T09:50:53;0.85;;;0.70;;
29214;SDS011;16252;49.816;7.964;2023-07-29T09:53:18;0.70;;;0.70;;
29214;SDS011;16252;49.816;7.964;2023-07-29T09:55:47;0.73;;;0.70;;
29214;SDS011;16252;49.816;7.964;2023-07-29T09:58:15;0.85;;;0.77;;
29214;SDS011;16252;49.816;7.964;2023-07-29T10:03:10;0.82;;;0.70;;
29214;SDS011;16252;49.816;7.964;2023-07-29T10:05:36;2.45;;;0.70;;
29214;SDS011;16252;49.816;7.964;2023-07-29T10:08:04;1.45;;;0.85;;
29214;SDS011;16252;49.816;7.964;2023-07-29T10:10:29;0.73;;;0.70;;
29214;SDS011;16252;49.816;7.964;2023-07-29T10:12:55;0.77;;;0.70;;
29214;SDS011;16252;49.816;7.964;2023-07-29T10:15:21;2.22;;;1.20;;
29214;SDS011;16252;49.816;7.964;2023-07-29T10:17:47;2.08;;;1.38;;
29214;SDS011;16252;49.816;7.964;2023-07-29T10:20:15;1.70;;;1.10;;
29214;SDS011;16252;49.816;7.964;2023-07-29T10:22:40;1.92;;;1.20;;
29214;SDS011;16252;49.816;7.964;2023-07-29T10:25:08;1.33;;;0.93;;
29214;SDS011;16252;49.816;7.964;2023-07-29T10:27:43;1.00;;;0.90;;
29214;SDS011;16252;49.816;7.964;2023-07-29T10:30:24;1.80;;;1.10;;
29214;SDS011;16252;49.816;7.964;2023-07-29T10:32:50;1.10;;;1.00;;
29214;SDS011;16252;49.816;7.964;2023-07-29T10:35:18;1.10;;;1.00;;
29214;SDS011;16252;49.816;7.964;2023-07-29T10:37:43;0.90;;;0.80;;
29214;SDS011;16252;49.816;7.964;2023-07-29T10:40:11;1.20;;;1.10;;
29214;SDS011;16252;49.816;7.964;2023-07-29T10:42:37;1.35;;;0.90;;
29214;SDS011;16252;49.816;7.964;2023-07-29T10:45:21;1.50;;;1.40;;
29214;SDS011;16252;49.816;7.964;2023-07-29T10:47:47;2.85;;;2.22;;
29214;SDS011;16252;49.816;7.964;2023-07-29T10:50:17;1.70;;;1.55;;
29214;SDS011;16252;49.816;7.964;2023-07-29T10:52:44;2.10;;;1.45;;
29214;SDS011;16252;49.816;7.964;2023-07-29T10:55:24;1.48;;;1.38;;
29214;SDS011;16252;49.816;7.964;2023-07-29T10:57:52;1.33;;;1.13;;
29214;SDS011;16252;49.816;7.964;2023-07-29T11:00:19;1.13;;;1.02;;
29214;SDS011;16252;49.816;7.964;2023-07-29T11:03:09;1.67;;;1.30;;
29214;SDS011;16252;49.816;7.964;2023-07-29T11:05:47;1.10;;;1.00;;
29214;SDS011;16252;49.816;7.964;2023-07-29T11:10:43;1.33;;;1.23;;
29214;SDS011;16252;49.816;7.964;2023-07-29T11:13:11;1.48;;;1.30;;
29214;SDS011;16252;49.816;7.964;2023-07-29T11:15:37;1.40;;;1.30;;
29214;SDS011;16252;49.816;7.964;2023-07-29T11:18:03;1.58;;;1.23;;
29214;SDS011;16252;49.816;7.964;2023-07-29T11:20:32;1.30;;;1.20;;
29214;SDS011;16252;49.816;7.964;2023-07-29T11:22:59;1.23;;;1.13;;
29214;SDS011;16252;49.816;7.964;2023-07-29T11:25:26;1.50;;;1.10;;
29214;SDS011;16252;49.816;7.964;2023-07-29T11:27:53;1.70;;;1.25;;
29214;SDS011;16252;49.816;7.964;2023-07-29T11:30:21;1.23;;;1.00;;
29214;SDS011;16252;49.816;7.964;2023-07-29T11:32:47;0.90;;;0.85;;
29214;SDS011;16252;49.816;7.964;2023-07-29T11:35:13;1.30;;;1.10;;
29214;SDS011;16252;49.816;7.964;2023-07-29T11:37:41;1.20;;;0.90;;
29214;SDS011;16252;49.816;7.964;2023-07-29T11:40:07;1.00;;;0.90;;
29214;SDS011;16252;49.816;7.964;2023-07-29T11:42:37;1.30;;;1.20;;
29214;SDS011;16252;49.816;7.964;2023-07-29T11:45:03;0.80;;;0.80;;
29214;SDS011;16252;49.816;7.964;2023-07-29T11:47:31;0.95;;;0.95;;
29214;SDS011;16252;49.816;7.964;2023-07-29T11:50:00;1.00;;;0.90;;
29214;SDS011;16252;49.816;7.964;2023-07-29T11:52:25;1.20;;;1.10;;
29214;SDS011;16252;49.816;7.964;2023-07-29T11:54:51;2.40;;;1.10;;
29214;SDS011;16252;49.816;7.964;2023-07-29T11:57:18;0.85;;;0.85;;
29214;SDS011;16252;49.816;7.964;2023-07-29T11:59:43;1.05;;;0.95;;
29214;SDS011;16252;49.816;7.964;2023-07-29T12:02:15;4.70;;;1.00;;
29214;SDS011;16252;49.816;7.964;2023-07-29T12:04:41;1.42;;;0.82;;
29214;SDS011;16252;49.816;7.964;2023-07-29T12:07:09;1.20;;;1.10;;
29214;SDS011;16252;49.816;7.964;2023-07-29T12:09:35;0.80;;;0.80;;
29214;SDS011;16252;49.816;7.964;2023-07-29T12:12:02;1.25;;;1.10;;
29214;SDS011;16252;49.816;7.964;2023-07-29T12:14:28;1.00;;;0.90;;
29214;SDS011;16252;49.816;7.964;2023-07-29T12:16:54;1.15;;;1.05;;
29214;SDS011;16252;49.816;7.964;2023-07-29T12:19:19;1.10;;;1.00;;
29214;SDS011;16252;49.816;7.964;2023-07-29T12:21:46;1.27;;;1.00;;
29214;SDS011;16252;49.816;7.964;2023-07-29T12:24:12;0.75;;;0.75;;
29214;SDS011;16252;49.816;7.964;2023-07-29T12:26:39;1.60;;;1.25;;
29214;SDS011;16252;49.816;7.964;2023-07-29T12:29:15;1.00;;;0.90;;
29214;SDS011;16252;49.816;7.964;2023-07-29T12:31:41;1.55;;;0.90;;
29214;SDS011;16252;49.816;7.964;2023-07-29T12:34:07;1.00;;;0.90;;
29214;SDS011;16252;49.816;7.964;2023-07-29T12:36:42;1.10;;;0.88;;
29214;SDS011;16252;49.816;7.964;2023-07-29T12:41:48;1.98;;;1.23;;
29214;SDS011;16252;49.816;7.964;2023-07-29T12:44:14;1.92;;;1.02;;
29214;SDS011;16252;49.816;7.964;2023-07-29T12:46:40;1.25;;;0.90;;
29214;SDS011;16252;49.816;7.964;2023-07-29T12:49:05;1.42;;;1.13;;
29214;SDS011;16252;49.816;7.964;2023-07-29T12:51:31;0.85;;;0.82;;
29214;SDS011;16252;49.816;7.964;2023-07-29T12:53:57;1.80;;;1.30;;
29214;SDS011;16252;49.816;7.964;2023-07-29T12:56:22;1.30;;;1.20;;
29214;SDS011;16252;49.816;7.964;2023-07-29T12:58:47;1.20;;;1.00;;
29214;SDS011;16252;49.816;7.964;2023-07-29T13:01:13;1.20;;;1.10;;
29214;SDS011;16252;49.816;7.964;2023-07-29T13:03:42;0.82;;;0.80;;
29214;SDS011;16252;49.816;7.964;2023-07-29T13:06:07;1.35;;;1.10;;
29214;SDS011;16252;49.816;7.964;2023-07-29T13:08:33;1.25;;;1.00;;
29214;SDS011;16252;49.816;7.964;2023-07-29T13:10:58;1.00;;;0.90;;
29214;SDS011;16252;49.816;7.964;2023-07-29T13:13:23;1.23;;;1.13;;
29214;SDS011;16252;49.816;7.964;2023-07-29T13:15:49;2.33;;;1.10;;
29214;SDS011;16252;49.816;7.964;2023-07-29T13:18:14;1.13;;;1.00;;
29214;SDS011;16252;49.816;7.964;2023-07-29T13:20:39;1.40;;;1.13;;
29214;SDS011;16252;49.816;7.964;2023-07-29T13:23:05;1.50;;;1.23;;
29214;SDS011;16252;49.816;7.964;2023-07-29T13:25:30;1.40;;;1.00;;
29214;SDS011;16252;49.816;7.964;2023-07-29T13:27:55;1.20;;;0.98;;
29214;SDS011;16252;49.816;7.964;2023-07-29T13:30:21;1.23;;;0.95;;
29214;SDS011;16252;49.816;7.964;2023-07-29T13:32:46;1.00;;;0.90;;
29214;SDS011;16252;49.816;7.964;2023-07-29T13:35:11;0.93;;;0.82;;
29214;SDS011;16252;49.816;7.964;2023-07-29T13:37:36;1.13;;;1.00;;
29214;SDS011;16252;49.816;7.964;2023-07-29T13:40:02;1.13;;;1.02;;
29214;SDS011;16252;49.816;7.964;2023-07-29T13:42:27;3.95;;;1.05;;
29214;SDS011;16252;49.816;7.964;2023-07-29T13:44:52;1.02;;;0.93;;
29214;SDS011;16252;49.816;7.964;2023-07-29T13:47:18;2.35;;;0.95;;
29214;SDS011;16252;49.816;7.964;2023-07-29T13:49:43;1.10;;;1.00;;
29214;SDS011;16252;49.816;7.964;2023-07-29T13:52:08;1.52;;;1.08;;
29214;SDS011;16252;49.816;7.964;2023-07-29T13:54:33;2.08;;;1.08;;
29214;SDS011;16252;49.816;7.964;2023-07-29T13:56:59;1.30;;;1.10;;
29214;SDS011;16252;49.816;7.964;2023-07-29T13:59:24;1.10;;;1.00;;
29214;SDS011;16252;49.816;7.964;2023-07-29T14:01:49;1.33;;;1.00;;
29214;SDS011;16252;49.816;7.964;2023-07-29T14:04:15;1.75;;;1.10;;
29214;SDS011;16252;49.816;7.964;2023-07-29T14:06:40;1.35;;;1.02;;
29214;SDS011;16252;49.816;7.964;2023-07-29T14:09:06;2.10;;;1.20;;
29214;SDS011;16252;49.816;7.964;2023-07-29T14:11:31;1.25;;;1.05;;
29214;SDS011;16252;49.816;7.964;2023-07-29T14:13:57;0.93;;;0.85;;
29214;SDS011;16252;49.816;7.964;2023-07-29T14:16:22;2.85;;;0.98;;
29214;SDS011;16252;49.816;7.964;2023-07-29T14:18:47;2.17;;;1.10;;
29214;SDS011;16252;49.816;7.964;2023-07-29T14:21:13;1.23;;;1.13;;
29214;SDS011;16252;49.816;7.964;2023-07-29T14:23:38;1.23;;;1.13;;
29214;SDS011;16252;49.816;7.964;2023-07-29T14:26:03;1.23;;;1.10;;
29214;SDS011;16252;49.816;7.964;2023-07-29T14:28:28;1.40;;;1.30;;
29214;SDS011;16252;49.816;7.964;2023-07-29T14:30:54;1.33;;;1.23;;
29214;SDS011;16252;49.816;7.964;2023-07-29T14:33:20;3.53;;;1.35;;
29214;SDS011;16252;49.816;7.964;2023-07-29T14:35:45;1.63;;;1.23;;
29214;SDS011;16252;49.816;7.964;2023-07-29T14:38:10;1.58;;;1.13;;
29214;SDS011;16252;49.816;7.964;2023-07-29T14:40:36;1.77;;;0.95;;
29214;SDS011;16252;49.816;7.964;2023-07-29T14:43:01;0.85;;;0.85;;
29214;SDS011;16252;49.816;7.964;2023-07-29T14:45:26;1.50;;;1.05;;
29214;SDS011;16252;49.816;7.964;2023-07-29T14:47:51;1.23;;;1.02;;
29214;SDS011;16252;49.816;7.964;2023-07-29T14:50:17;0.70;;;0.70;;
29214;SDS011;16252;49.816;7.964;2023-07-29T14:52:42;1.30;;;1.20;;
29214;SDS011;16252;49.816;7.964;2023-07-29T14:55:07;0.90;;;0.90;;